WetterOnline ( http://www.wetteronline.de )

Wetter aktuell Messina

Aktuelles Wetter: Messina (51m)

6-stündlich | Neueste Meldungen
Ortszeit Temperatur Wetter
Fr, 23.02. 1:00 14.0° C Gewitter
Do, 22.02. 19:00 12.0° C leicht bewölkt
Do, 22.02. 13:00 12.8° C wolkig
Do, 22.02. 7:00 9.8° C wolkig
Do, 22.02. 1:00 9.8° C wolkig
Mi, 21.02. 19:00 11.4° C leicht bewölkt
Mi, 21.02. 13:00 12.4° C wolkig
Mi, 21.02. 7:00 10.0° C bedeckt
Ortszeit Temperatur Wetter
Fr, 23.02. 3:00 14.4° C wolkig
Fr, 23.02. 2:55 14° C leicht bewölkt
Fr, 23.02. 2:00 14.0° C wolkig, nach Gewitter
Fr, 23.02. 1:55 14° C leicht bewölkt
Fr, 23.02. 1:00 14.0° C Gewitter
Fr, 23.02. 0:55 14° C leichte Gewitter
Fr, 23.02. 0:00 14.0° C wolkig
Do, 22.02. 23:55 14° C leicht bewölkt
Do, 22.02. 23:00 13.4° C wolkig
Ortszeit Relative Feuchte Sichtweite
Fr, 23.02. 1:00 85% 8 km
Do, 22.02. 19:00 82% 12 km
Do, 22.02. 13:00 67% 20 km
Do, 22.02. 7:00 69% 14 km
Do, 22.02. 1:00 74% 14 km
Mi, 21.02. 19:00 65% 16 km
Mi, 21.02. 13:00 60% 20 km
Mi, 21.02. 7:00 85% 10 km
Ortszeit Relative Feuchte Sichtweite
Fr, 23.02. 3:00 72% 10 km
Fr, 23.02. 2:55 72% >10 km
Fr, 23.02. 2:00 78% 10 km
Fr, 23.02. 1:55 77% >10 km
Fr, 23.02. 1:00 85% 8 km
Fr, 23.02. 0:55 88% 8 km
Fr, 23.02. 0:00 79% 10 km
Do, 22.02. 23:55 77% >10 km
Do, 22.02. 23:00 78% 10 km
Ortszeit Niederschlagsmenge Niederschlagsart
Fr, 23.02. 1:00 2 l/m2 in 6 Std. Gewitter, Regen
Do, 22.02. 19:00 2 l/m2 in 12 Std. Regen
Do, 22.02. 13:00 0.0 l/m2 in 6 Std. -
Do, 22.02. 7:00 0.0 l/m2 in 12 Std. -
Do, 22.02. 1:00 0.0 l/m2 in 6 Std. -
Mi, 21.02. 19:00 0.4 l/m2 in 12 Std. -
Mi, 21.02. 13:00 0.4 l/m2 in 6 Std. Regen
Mi, 21.02. 7:00 1 l/m2 in 12 Std. Regen
Ortszeit Niederschlagsmenge Niederschlagsart
Fr, 23.02. 3:00 keine Meldung -
Fr, 23.02. 2:55 keine Meldung -
Fr, 23.02. 2:00 keine Meldung -
Fr, 23.02. 1:55 keine Meldung -
Fr, 23.02. 1:00 keine Meldung -
Fr, 23.02. 0:55 keine Meldung -
Fr, 23.02. 0:00 keine Meldung -
Do, 22.02. 23:55 keine Meldung -
Do, 22.02. 23:00 keine Meldung -
Ortszeit Stärke Spitze Richtung
km/h Bft. km/h Grad Sektor
Fr, 23.02. 1:00 19 3 - 210° SW
Do, 22.02. 19:00 17 3 - 230° SW
Do, 22.02. 13:00 19 3 - 210° SW
Do, 22.02. 7:00 13 3 - 240° SW
Do, 22.02. 1:00 6 1 - 290° W
Mi, 21.02. 19:00 9 2 - 50° NO
Mi, 21.02. 13:00 22 4 - 230° SW
Mi, 21.02. 7:00 13 3 - 230° SW
Ortszeit Stärke Spitze Richtung
km/h Bft. km/h Grad Sektor
Fr, 23.02. 3:00 22 4 - 200° S
Fr, 23.02. 2:55 22 4 - 200° S
Fr, 23.02. 2:00 22 4 - 210° SW
Fr, 23.02. 1:55 22 4 - 210° SW
Fr, 23.02. 1:00 19 3 - 210° SW
Fr, 23.02. 0:55 19 3 - 210° SW
Fr, 23.02. 0:00 20 4 - 210° SW
Do, 22.02. 23:55 20 4 - 210° SW
Do, 22.02. 23:00 22 4 - 210° SW
Ortszeit Untergrenze Bedeckung Gattung
total tief tief mittel hoch
Fr, 23.02. 1:00 750 m 7/8 5/8 Cb As -
Do, 22.02. 19:00 900 m 5/8 3/8 Sc - Ci
Do, 22.02. 13:00 900 m 7/8 3/8 Sc As Cs
Do, 22.02. 7:00 900 m 6/8 2/8 Sc Ac -
Do, 22.02. 1:00 540 m 6/8 5/8 Cu As -
Mi, 21.02. 19:00 600 m 5/8 4/8 Cu As -
Mi, 21.02. 13:00 600 m 6/8 4/8 Sc As -
Mi, 21.02. 7:00 300 m 8/8 5/8 St Ns -
Ortszeit Bedeckungsgrad in Achtel und Wolkenuntergrenze
Fr, 23.02. 3:00 4(600m) 5(2400m)
Fr, 23.02. 2:55 3-4(600m)
Fr, 23.02. 2:00 2(600m) 3(750m)
Fr, 23.02. 1:55 1-2(600m) 3-4(750m)
Fr, 23.02. 1:00 3(750m)
Fr, 23.02. 0:55 1-2(600m) 3-4(750m)
Fr, 23.02. 0:00 4(750m) 3(2400m)
Do, 22.02. 23:55 3-4(750m)
Do, 22.02. 23:00 4(750m) 3(2400m)
Ortszeit Luftdruck NN (hPa) Tendenz (hPa in 3 Std.)
Fr, 23.02. 1:00 1002 - 0,4
Do, 22.02. 19:00 1003 0,0
Do, 22.02. 13:00 1003 - 0,5
Do, 22.02. 7:00 1003 - 0,4
Do, 22.02. 1:00 1003 + 0,4
Mi, 21.02. 19:00 1001 + 1,3
Mi, 21.02. 13:00 999 + 0,5
Mi, 21.02. 7:00 999 - 1,3
Ortszeit Luftdruck NN (hPa) Tendenz (hPa in 3 Std.)
Fr, 23.02. 3:00 1001 - 1,3
Fr, 23.02. 2:55 1001 keine Meldung
Fr, 23.02. 2:00 1002 - 0,8
Fr, 23.02. 1:55 1001 keine Meldung
Fr, 23.02. 1:00 1002 - 0,4
Fr, 23.02. 0:55 1002 keine Meldung
Fr, 23.02. 0:00 1002 - 0,1
Do, 22.02. 23:55 1002 keine Meldung
Do, 22.02. 23:00 1002 - 0,1
Ortszeit Schneehöhe (cm)
Fr, 23.02. 1:00 -
Do, 22.02. 19:00 -
Do, 22.02. 13:00 -
Do, 22.02. 7:00 0
Do, 22.02. 1:00 -
Mi, 21.02. 19:00 -
Mi, 21.02. 13:00 -
Mi, 21.02. 7:00 -
Ortszeit Schneehöhe (cm)
Fr, 23.02. 3:00 -
Fr, 23.02. 2:55 -
Fr, 23.02. 2:00 -
Fr, 23.02. 1:55 -
Fr, 23.02. 1:00 -
Fr, 23.02. 0:55 -
Fr, 23.02. 0:00 -
Do, 22.02. 23:55 -
Do, 22.02. 23:00 -
Link zu dieser Seite / Seite empfehlen

Das Wetter in ...